createdAt,value
2018-12-24T00:00:08.937Z,19.80
2018-12-24T00:01:08.903Z,20.80
2018-12-24T00:02:08.871Z,21.30
2018-12-24T00:03:08.838Z,18.60
2018-12-24T00:04:08.806Z,17.50
2018-12-24T00:05:08.771Z,20.40
2018-12-24T00:06:08.741Z,20.90
2018-12-24T00:07:08.709Z,16.00
2018-12-24T00:08:08.671Z,20.90
2018-12-24T00:09:08.638Z,19.70
2018-12-24T00:10:08.604Z,19.00
2018-12-24T00:11:08.571Z,19.10
2018-12-24T00:12:08.539Z,19.50
2018-12-24T00:13:08.504Z,15.70
2018-12-24T00:14:08.472Z,16.30
2018-12-24T00:15:08.439Z,22.00
2018-12-24T00:16:08.406Z,19.70
2018-12-24T00:17:08.372Z,16.70
2018-12-24T00:18:08.340Z,16.50
2018-12-24T00:19:08.306Z,16.70
2018-12-24T00:20:08.272Z,15.20
2018-12-24T00:21:08.238Z,13.20
2018-12-24T00:22:08.206Z,15.80
2018-12-24T00:23:08.176Z,14.30
2018-12-24T00:24:08.139Z,12.00
2018-12-24T00:25:08.105Z,12.50
2018-12-24T00:26:08.072Z,11.50
2018-12-24T00:27:08.039Z,12.10
2018-12-24T00:28:08.005Z,13.90
2018-12-24T00:29:07.972Z,13.20
2018-12-24T00:30:07.939Z,10.10
2018-12-24T00:31:07.908Z,10.80
2018-12-24T00:32:07.871Z,10.50
2018-12-24T00:33:07.840Z,13.20
2018-12-24T00:34:07.806Z,10.30
2018-12-24T00:35:07.772Z,12.40
2018-12-24T00:36:07.738Z,11.10
2018-12-24T00:37:07.706Z,10.60
2018-12-24T00:38:07.672Z,11.10
2018-12-24T00:39:07.640Z,10.10
2018-12-24T00:40:07.607Z,11.20
2018-12-24T00:41:07.572Z,12.00
2018-12-24T00:42:15.662Z,11.20
2018-12-24T00:43:07.506Z,13.20
2018-12-24T00:44:07.471Z,10.70
2018-12-24T00:45:07.439Z,11.30
2018-12-24T00:46:07.406Z,15.40
2018-12-24T00:47:07.373Z,15.10
2018-12-24T00:48:07.349Z,14.60
2018-12-24T00:49:07.304Z,12.30
2018-12-24T00:50:07.272Z,13.50
2018-12-24T00:51:07.239Z,13.90
2018-12-24T00:52:07.207Z,17.20
2018-12-24T00:53:07.172Z,12.50
2018-12-24T00:54:07.138Z,14.00
2018-12-24T00:55:07.105Z,15.60
2018-12-24T00:56:07.070Z,12.60
2018-12-24T00:57:07.036Z,17.10
2018-12-24T00:58:07.007Z,14.70
2018-12-24T00:59:06.974Z,15.10
2018-12-24T01:00:06.939Z,17.50
2018-12-24T01:01:06.905Z,16.70
2018-12-24T01:02:06.869Z,21.80
2018-12-24T01:03:06.837Z,20.50
2018-12-24T01:04:06.802Z,19.80
2018-12-24T01:05:06.768Z,22.00
2018-12-24T01:06:06.738Z,21.00
2018-12-24T01:07:06.700Z,25.30
2018-12-24T01:08:06.670Z,22.40
2018-12-24T01:09:06.636Z,21.50
2018-12-24T01:10:06.601Z,22.90
2018-12-24T01:11:06.567Z,20.90
2018-12-24T01:12:06.535Z,23.40
2018-12-24T01:13:06.499Z,21.80
2018-12-24T01:14:06.465Z,21.30
2018-12-24T01:15:06.433Z,19.20
2018-12-24T01:16:06.399Z,20.30
2018-12-24T01:17:06.365Z,19.70
2018-12-24T01:18:06.333Z,18.40
2018-12-24T01:19:06.297Z,20.60
2018-12-24T01:20:06.262Z,20.20
2018-12-24T01:21:06.229Z,17.50
2018-12-24T01:22:06.195Z,13.50
2018-12-24T01:23:06.165Z,15.50
2018-12-24T01:24:06.127Z,14.40
2018-12-24T01:25:06.094Z,16.10
2018-12-24T01:26:06.060Z,14.30
2018-12-24T01:27:06.026Z,16.50
2018-12-24T01:28:05.992Z,17.00
2018-12-24T01:29:05.958Z,16.50
2018-12-24T01:30:05.928Z,16.40
2018-12-24T01:31:05.892Z,12.70
2018-12-24T01:32:05.857Z,12.80
2018-12-24T01:33:05.823Z,13.10
2018-12-24T01:34:05.789Z,17.00
2018-12-24T01:35:05.756Z,16.90
2018-12-24T01:36:05.720Z,17.10
2018-12-24T01:37:05.688Z,18.20
2018-12-24T01:38:05.654Z,18.10
2018-12-24T01:39:05.619Z,18.90
2018-12-24T01:40:05.587Z,16.80
2018-12-24T01:41:05.556Z,16.50
2018-12-24T01:42:05.518Z,17.50
2018-12-24T01:43:05.484Z,16.40
2018-12-24T01:44:05.449Z,15.90
2018-12-24T01:45:05.415Z,14.90
2018-12-24T01:46:05.381Z,15.70
2018-12-24T01:47:05.346Z,15.60
2018-12-24T01:48:05.312Z,12.40
2018-12-24T01:49:05.279Z,12.60
2018-12-24T01:50:05.244Z,12.30
2018-12-24T01:51:05.211Z,14.40
2018-12-24T01:52:05.179Z,18.10
2018-12-24T01:53:05.143Z,16.00
2018-12-24T01:54:05.109Z,12.40
2018-12-24T01:55:05.074Z,11.60
2018-12-24T01:56:05.040Z,12.70
2018-12-24T01:57:05.006Z,14.20
2018-12-24T01:58:04.972Z,14.10
2018-12-24T01:59:04.938Z,14.80
2018-12-24T02:00:04.903Z,15.90
2018-12-24T02:01:04.869Z,15.70
2018-12-24T02:02:04.908Z,13.70
2018-12-24T02:03:04.802Z,14.60
2018-12-24T02:04:04.767Z,14.40
2018-12-24T02:05:04.733Z,14.50
2018-12-24T02:06:04.699Z,12.90
2018-12-24T02:07:04.664Z,13.00
2018-12-24T02:08:04.631Z,14.80
2018-12-24T02:09:04.599Z,15.00
2018-12-24T02:10:04.566Z,16.60
2018-12-24T02:11:04.531Z,19.70
2018-12-24T02:12:04.494Z,19.00
2018-12-24T02:13:04.460Z,18.20
2018-12-24T02:14:04.426Z,14.90
2018-12-24T02:15:04.393Z,16.00
2018-12-24T02:16:04.357Z,15.90
2018-12-24T02:17:04.325Z,18.00
2018-12-24T02:18:04.289Z,16.20
2018-12-24T02:19:04.256Z,15.30
2018-12-24T02:20:04.221Z,15.70
2018-12-24T02:21:04.186Z,15.40
2018-12-24T02:22:12.646Z,15.30
2018-12-24T02:23:04.118Z,13.30
2018-12-24T02:24:04.083Z,14.30
2018-12-24T02:25:04.050Z,13.10
2018-12-24T02:26:04.016Z,14.80
2018-12-24T02:27:03.983Z,12.30
2018-12-24T02:28:03.947Z,13.90
2018-12-24T02:29:03.912Z,12.40
2018-12-24T02:30:03.905Z,13.10
2018-12-24T02:31:03.847Z,13.00
2018-12-24T02:32:03.822Z,14.50
2018-12-24T02:33:03.775Z,13.00
2018-12-24T02:34:03.744Z,15.10
2018-12-24T02:35:03.706Z,14.30
2018-12-24T02:36:03.672Z,14.30
2018-12-24T02:37:03.639Z,15.30
2018-12-24T02:38:03.604Z,12.60
2018-12-24T02:39:03.568Z,13.80
2018-12-24T02:40:03.535Z,13.90
2018-12-24T02:41:03.499Z,11.50
2018-12-24T02:42:03.465Z,10.80
2018-12-24T02:43:03.431Z,12.50
2018-12-24T02:44:03.399Z,12.40
2018-12-24T02:45:03.363Z,10.50
2018-12-24T02:46:03.329Z,8.60
2018-12-24T02:47:03.296Z,12.60
2018-12-24T02:48:03.258Z,11.10
2018-12-24T02:49:03.225Z,11.80
2018-12-24T02:50:03.192Z,10.90
2018-12-24T02:51:03.156Z,12.50
2018-12-24T02:52:03.123Z,12.20
2018-12-24T02:53:03.088Z,10.70
2018-12-24T02:54:03.052Z,11.10
2018-12-24T02:55:03.019Z,10.80
2018-12-24T02:56:02.984Z,10.90
2018-12-24T02:57:03.057Z,10.10
2018-12-24T02:58:02.915Z,11.20
2018-12-24T02:59:02.882Z,9.80
2018-12-24T03:00:02.855Z,8.40
2018-12-24T03:01:02.811Z,8.80
2018-12-24T03:02:02.785Z,7.80
2018-12-24T03:03:02.746Z,7.20
2018-12-24T03:04:02.713Z,6.40
2018-12-24T03:05:02.684Z,6.40
2018-12-24T03:06:02.641Z,6.40
2018-12-24T03:07:02.605Z,7.00
2018-12-24T03:08:02.570Z,6.50
2018-12-24T03:09:02.536Z,6.20
2018-12-24T03:10:02.504Z,7.00
2018-12-24T03:11:02.467Z,5.90
2018-12-24T03:12:02.463Z,6.00
2018-12-24T03:13:03.263Z,5.20
2018-12-24T03:14:02.366Z,4.60
2018-12-24T03:15:02.331Z,4.80
2018-12-24T03:16:02.296Z,4.50
2018-12-24T03:17:02.260Z,5.10
2018-12-24T03:18:02.227Z,5.10
2018-12-24T03:19:02.194Z,6.20
2018-12-24T03:20:02.156Z,4.60
2018-12-24T03:21:02.123Z,6.10
2018-12-24T03:22:02.095Z,6.00
2018-12-24T03:23:02.056Z,5.10
2018-12-24T03:24:02.021Z,4.70
2018-12-24T03:25:01.986Z,4.60
2018-12-24T03:26:01.952Z,5.00
2018-12-24T03:27:01.919Z,5.00
2018-12-24T03:28:01.882Z,4.70
2018-12-24T03:29:01.846Z,5.50
2018-12-24T03:30:01.814Z,5.30
2018-12-24T03:31:01.780Z,6.70
2018-12-24T03:32:01.773Z,5.40
2018-12-24T03:33:01.734Z,6.70
2018-12-24T03:34:01.685Z,5.90
2018-12-24T03:35:01.658Z,6.50
2018-12-24T03:36:01.609Z,5.80
2018-12-24T03:37:01.576Z,8.40
2018-12-24T03:38:01.534Z,7.50
2018-12-24T03:39:01.502Z,7.70
2018-12-24T03:40:01.470Z,8.70
2018-12-24T03:41:01.431Z,6.80
2018-12-24T03:42:01.396Z,6.50
2018-12-24T03:43:01.361Z,7.70
2018-12-24T03:44:01.326Z,6.70
2018-12-24T03:45:01.291Z,7.90
2018-12-24T03:46:01.260Z,6.80
2018-12-24T03:47:01.225Z,7.20
2018-12-24T03:48:01.191Z,9.50
2018-12-24T03:49:01.154Z,8.50
2018-12-24T03:50:01.130Z,9.00
2018-12-24T03:51:01.085Z,8.80
2018-12-24T03:52:01.051Z,8.70
2018-12-24T03:53:01.015Z,9.40
2018-12-24T03:54:00.982Z,9.20
2018-12-24T03:55:00.947Z,9.60
2018-12-24T03:56:00.915Z,9.40
2018-12-24T03:57:00.877Z,9.30
2018-12-24T03:58:00.844Z,11.80
2018-12-24T03:59:00.809Z,9.60
2018-12-24T04:00:00.784Z,9.90
2018-12-24T04:01:00.740Z,9.70
2018-12-24T04:02:00.703Z,10.80
2018-12-24T04:03:00.669Z,9.40
2018-12-24T04:04:00.635Z,9.80
2018-12-24T04:05:00.601Z,9.20
2018-12-24T04:06:00.567Z,10.00
2018-12-24T04:07:00.531Z,9.70
2018-12-24T04:08:00.509Z,8.70
2018-12-24T04:09:00.462Z,9.80
2018-12-24T04:10:00.429Z,9.00
2018-12-24T04:11:00.393Z,10.60
2018-12-24T04:12:00.358Z,11.10
2018-12-24T04:13:00.325Z,10.00
2018-12-24T04:14:00.289Z,10.00
2018-12-24T04:15:00.308Z,11.20
2018-12-24T04:16:00.217Z,10.30
2018-12-24T04:17:00.185Z,9.70
2018-12-24T04:18:00.151Z,11.60
2018-12-24T04:19:00.117Z,9.60
2018-12-24T04:20:00.086Z,10.90
2018-12-24T04:21:00.045Z,11.50
2018-12-24T04:22:00.011Z,10.70
2018-12-24T04:22:59.996Z,9.90
2018-12-24T04:23:59.960Z,9.30
2018-12-24T04:24:59.910Z,8.80
2018-12-24T04:25:59.874Z,7.90
2018-12-24T04:26:59.843Z,9.70
2018-12-24T04:27:59.806Z,9.10
2018-12-24T04:28:59.768Z,9.00
2018-12-24T04:29:59.734Z,8.90
2018-12-24T04:30:59.699Z,10.60
2018-12-24T04:31:59.665Z,9.80
2018-12-24T04:32:59.631Z,9.70
2018-12-24T04:33:59.596Z,8.70
2018-12-24T04:34:59.560Z,8.80
2018-12-24T04:35:59.526Z,8.30
2018-12-24T04:36:59.490Z,12.60
2018-12-24T04:37:59.455Z,11.40
2018-12-24T04:38:59.424Z,8.60
2018-12-24T04:39:59.386Z,9.80
2018-12-24T04:40:59.352Z,11.20
2018-12-24T04:41:59.319Z,9.40
2018-12-24T04:42:59.283Z,10.10
2018-12-24T04:43:59.404Z,11.90
2018-12-24T04:44:59.213Z,10.70
2018-12-24T04:45:59.178Z,10.30
2018-12-24T04:46:59.145Z,11.80
2018-12-24T04:47:59.109Z,11.90
2018-12-24T04:48:59.076Z,11.70
2018-12-24T04:49:59.039Z,11.50
2018-12-24T04:50:59.006Z,11.70
2018-12-24T04:51:58.973Z,12.90
2018-12-24T04:52:58.935Z,12.90
2018-12-24T04:53:58.900Z,13.80
2018-12-24T04:54:58.867Z,12.20
2018-12-24T04:55:58.831Z,12.70
2018-12-24T04:56:58.799Z,12.40
2018-12-24T04:57:58.761Z,12.50
2018-12-24T04:58:58.728Z,10.10
2018-12-24T04:59:58.692Z,10.60
2018-12-24T05:00:58.659Z,11.80
2018-12-24T05:01:58.621Z,11.60
2018-12-24T05:02:58.587Z,11.70
2018-12-24T05:03:58.553Z,11.10
2018-12-24T05:04:58.517Z,13.00
2018-12-24T05:05:58.483Z,10.40
2018-12-24T05:06:58.449Z,10.90
2018-12-24T05:07:58.413Z,9.50
2018-12-24T05:08:58.379Z,9.60
2018-12-24T05:09:58.345Z,9.10
2018-12-24T05:10:58.309Z,9.10
2018-12-24T05:11:58.274Z,9.90
2018-12-24T05:12:58.241Z,7.70
2018-12-24T05:13:58.205Z,8.30
2018-12-24T05:14:58.173Z,7.90
2018-12-24T05:15:58.134Z,6.70
2018-12-24T05:16:58.100Z,5.40
2018-12-24T05:17:58.066Z,6.40
2018-12-24T05:18:58.032Z,5.20
2018-12-24T05:19:57.995Z,5.30
2018-12-24T05:20:57.960Z,4.70
2018-12-24T05:21:57.926Z,4.30
2018-12-24T05:22:57.890Z,4.80
2018-12-24T05:23:57.855Z,5.50
2018-12-24T05:24:57.821Z,4.50
2018-12-24T05:25:57.786Z,5.00
2018-12-24T05:26:57.751Z,4.40
2018-12-24T05:27:57.714Z,4.40
2018-12-24T05:28:57.680Z,4.30
2018-12-24T05:29:57.647Z,4.30
2018-12-24T05:30:57.610Z,5.00
2018-12-24T05:31:57.573Z,4.40
2018-12-24T05:32:57.540Z,5.10
2018-12-24T05:33:57.505Z,4.60
2018-12-24T05:34:57.470Z,4.50
2018-12-24T05:35:57.435Z,5.10
2018-12-24T05:36:57.400Z,4.50
2018-12-24T05:37:57.366Z,5.20
2018-12-24T05:38:57.330Z,5.40
2018-12-24T05:39:57.296Z,5.70
2018-12-24T05:40:57.259Z,5.80
2018-12-24T05:41:57.228Z,4.70
2018-12-24T05:42:57.191Z,4.90
2018-12-24T05:43:57.153Z,4.40
2018-12-24T05:44:57.124Z,5.40
2018-12-24T05:45:57.084Z,4.90
2018-12-24T05:46:57.050Z,4.90
2018-12-24T05:47:57.016Z,5.40
2018-12-24T05:48:56.978Z,5.40
2018-12-24T05:49:56.944Z,5.70
2018-12-24T05:50:56.908Z,4.70
2018-12-24T05:51:56.873Z,5.20
2018-12-24T05:52:56.836Z,4.50
2018-12-24T05:53:56.802Z,4.40
2018-12-24T05:54:56.767Z,5.80
2018-12-24T05:55:56.844Z,5.10
2018-12-24T05:56:56.695Z,5.50
2018-12-24T05:57:56.660Z,5.80
2018-12-24T05:58:56.625Z,5.80
2018-12-24T05:59:56.589Z,6.60
2018-12-24T06:00:56.555Z,6.50
2018-12-24T06:01:56.524Z,6.40
2018-12-24T06:02:56.482Z,5.80
2018-12-24T06:03:56.445Z,6.20
2018-12-24T06:04:56.412Z,5.90
2018-12-24T06:05:56.377Z,6.00
2018-12-24T06:06:56.342Z,5.90
2018-12-24T06:07:56.306Z,5.90
2018-12-24T06:08:56.271Z,6.10
2018-12-24T06:09:56.235Z,6.50
2018-12-24T06:10:56.199Z,7.00
2018-12-24T06:11:56.310Z,6.70
2018-12-24T06:12:56.129Z,6.30
2018-12-24T06:13:58.107Z,7.10
2018-12-24T06:14:56.058Z,6.50
2018-12-24T06:15:56.021Z,7.10
2018-12-24T06:16:55.988Z,7.50
2018-12-24T06:17:57.685Z,7.70
2018-12-24T06:18:55.916Z,6.50
2018-12-24T06:19:55.879Z,7.80
2018-12-24T06:20:55.847Z,7.20
2018-12-24T06:21:55.808Z,6.90
2018-12-24T06:22:55.774Z,7.10
2018-12-24T06:23:55.738Z,7.00
2018-12-24T06:24:55.700Z,8.00
2018-12-24T06:25:55.854Z,7.30
2018-12-24T06:26:55.630Z,7.30
2018-12-24T06:27:55.601Z,7.40
2018-12-24T06:28:55.559Z,9.00
2018-12-24T06:29:55.524Z,7.10
2018-12-24T06:30:55.489Z,8.10
2018-12-24T06:31:55.453Z,7.10
2018-12-24T06:32:55.417Z,7.00
2018-12-24T06:33:55.382Z,5.70
2018-12-24T06:34:55.346Z,7.00
2018-12-24T06:35:55.310Z,6.40
2018-12-24T06:36:55.275Z,7.10
2018-12-24T06:37:55.240Z,8.50
2018-12-24T06:38:55.203Z,7.40
2018-12-24T06:39:55.169Z,7.30
2018-12-24T06:40:55.130Z,6.00
2018-12-24T06:41:55.094Z,5.30
2018-12-24T06:42:55.059Z,5.90
2018-12-24T06:43:55.023Z,7.20
2018-12-24T06:44:54.986Z,5.30
2018-12-24T06:45:54.950Z,4.30
2018-12-24T06:46:54.915Z,5.50
2018-12-24T06:47:54.879Z,5.40
2018-12-24T06:48:54.843Z,4.90
2018-12-24T06:49:54.806Z,3.90
2018-12-24T06:50:54.771Z,5.40
2018-12-24T06:51:54.739Z,5.10
2018-12-24T06:52:54.701Z,4.20
2018-12-24T06:53:54.662Z,5.10
2018-12-24T06:54:54.627Z,3.80
2018-12-24T06:55:54.589Z,3.80
2018-12-24T06:56:54.555Z,4.50
2018-12-24T06:57:54.515Z,4.30
2018-12-24T06:58:54.479Z,5.10
2018-12-24T06:59:54.442Z,4.10
2018-12-24T07:00:54.410Z,4.90
2018-12-24T07:01:54.371Z,4.40
2018-12-24T07:02:54.333Z,4.30
2018-12-24T07:03:54.296Z,3.90
2018-12-24T07:04:54.261Z,3.80
2018-12-24T07:05:54.224Z,3.90
2018-12-24T07:06:54.188Z,4.40
2018-12-24T07:07:54.153Z,4.20
2018-12-24T07:08:54.115Z,4.90
2018-12-24T07:09:54.078Z,5.00
2018-12-24T07:10:54.044Z,6.40
2018-12-24T07:11:54.006Z,4.60
2018-12-24T07:12:53.969Z,4.90
2018-12-24T07:13:53.934Z,5.30
2018-12-24T07:14:53.900Z,5.50
2018-12-24T07:15:53.862Z,5.70
2018-12-24T07:16:53.826Z,6.10
2018-12-24T07:17:53.790Z,6.20
2018-12-24T07:18:53.754Z,6.70
2018-12-24T07:19:53.716Z,6.00
2018-12-24T07:20:53.680Z,5.70
2018-12-24T07:21:53.644Z,6.60
2018-12-24T07:22:53.608Z,6.60
2018-12-24T07:23:53.571Z,8.60
2018-12-24T07:24:53.536Z,7.90
2018-12-24T07:25:53.501Z,6.80
2018-12-24T07:26:53.464Z,6.70
2018-12-24T07:27:53.428Z,10.20
2018-12-24T07:28:59.001Z,8.80
2018-12-24T07:29:53.356Z,6.90
2018-12-24T07:30:53.328Z,7.10
2018-12-24T07:31:53.283Z,8.10
2018-12-24T07:32:53.247Z,7.60
2018-12-24T07:33:53.212Z,8.30
2018-12-24T07:34:53.177Z,10.90
2018-12-24T07:35:53.140Z,7.80
2018-12-24T07:36:53.103Z,8.30
2018-12-24T07:37:53.067Z,7.80
2018-12-24T07:38:53.031Z,8.30
2018-12-24T07:39:52.996Z,8.20
2018-12-24T07:40:52.960Z,10.00
2018-12-24T07:41:52.929Z,7.70
2018-12-24T07:42:52.889Z,6.90
2018-12-24T07:43:52.854Z,5.90
2018-12-24T07:44:52.818Z,7.00
2018-12-24T07:45:52.782Z,8.30
2018-12-24T07:46:52.746Z,7.40
2018-12-24T07:47:52.713Z,6.30
2018-12-24T07:48:52.672Z,5.40
2018-12-24T07:49:52.637Z,5.90
2018-12-24T07:50:52.601Z,6.60
2018-12-24T07:51:52.565Z,5.80
2018-12-24T07:52:52.528Z,6.40
2018-12-24T07:53:52.496Z,4.90
2018-12-24T07:54:52.456Z,6.00
2018-12-24T07:55:52.420Z,5.70
2018-12-24T07:56:52.384Z,6.20
2018-12-24T07:57:52.349Z,5.40
2018-12-24T07:58:52.316Z,5.70
2018-12-24T07:59:52.276Z,4.40
2018-12-24T08:00:52.242Z,4.40
2018-12-24T08:01:52.204Z,5.00
2018-12-24T08:02:52.168Z,4.70
2018-12-24T08:03:52.131Z,4.50
2018-12-24T08:04:52.097Z,3.80
2018-12-24T08:05:52.067Z,4.30
2018-12-24T08:06:52.025Z,4.70
2018-12-24T08:07:51.988Z,4.60
2018-12-24T08:08:51.952Z,5.50
2018-12-24T08:09:51.916Z,4.80
2018-12-24T08:10:51.982Z,3.20
2018-12-24T08:11:51.845Z,4.60
2018-12-24T08:12:51.807Z,4.20
2018-12-24T08:13:51.774Z,4.00
2018-12-24T08:14:51.737Z,3.40
2018-12-24T08:15:51.699Z,3.30
2018-12-24T08:16:51.665Z,3.90
2018-12-24T08:17:51.628Z,4.70
2018-12-24T08:18:51.592Z,5.20
2018-12-24T08:19:51.557Z,5.10
2018-12-24T08:20:51.524Z,3.80
2018-12-24T08:21:51.485Z,4.10
2018-12-24T08:22:51.447Z,3.80
2018-12-24T08:23:51.411Z,4.30
2018-12-24T08:24:51.376Z,4.10
2018-12-24T08:25:51.340Z,3.80
2018-12-24T08:26:53.638Z,4.50
2018-12-24T08:27:51.267Z,3.40
2018-12-24T08:28:51.232Z,3.60
2018-12-24T08:29:51.198Z,4.90
2018-12-24T08:30:51.161Z,3.80
2018-12-24T08:31:51.125Z,3.90
2018-12-24T08:32:51.089Z,3.20
2018-12-24T08:33:51.053Z,4.20
2018-12-24T08:34:51.019Z,5.70
2018-12-24T08:35:50.981Z,3.60
2018-12-24T08:36:50.946Z,3.40
2018-12-24T08:37:50.910Z,3.80
2018-12-24T08:38:50.875Z,3.50
2018-12-24T08:39:50.839Z,4.20
2018-12-24T08:40:50.803Z,4.90
2018-12-24T08:41:50.768Z,3.40
2018-12-24T08:42:50.733Z,4.50
2018-12-24T08:43:50.696Z,3.60
2018-12-24T08:44:50.663Z,3.70
2018-12-24T08:45:50.625Z,3.40
2018-12-24T08:46:50.591Z,4.50
2018-12-24T08:47:50.556Z,3.50
2018-12-24T08:48:50.517Z,3.50
2018-12-24T08:49:50.484Z,3.30
2018-12-24T08:50:50.448Z,3.80
2018-12-24T08:51:50.413Z,4.70
2018-12-24T08:52:50.376Z,5.20
2018-12-24T08:53:50.340Z,4.60
2018-12-24T08:54:50.306Z,4.20
2018-12-24T08:55:50.359Z,3.60
2018-12-24T08:56:50.235Z,4.40
2018-12-24T08:57:50.198Z,4.80
2018-12-24T08:58:50.164Z,4.70
2018-12-24T08:59:50.128Z,3.90
2018-12-24T09:00:50.091Z,3.70
2018-12-24T09:01:50.085Z,4.00
2018-12-24T09:02:50.024Z,4.80
2018-12-24T09:03:49.985Z,4.30
2018-12-24T09:04:49.951Z,4.60
2018-12-24T09:05:49.914Z,3.30
2018-12-24T09:06:49.881Z,3.40
2018-12-24T09:07:49.844Z,5.20
2018-12-24T09:08:49.808Z,2.90
2018-12-24T09:09:49.774Z,2.90
2018-12-24T09:10:49.736Z,3.70
2018-12-24T09:11:49.701Z,2.80
2018-12-24T09:12:49.666Z,2.90
2018-12-24T09:13:49.634Z,2.80
2018-12-24T09:14:50.364Z,3.60
2018-12-24T09:15:49.559Z,3.50
2018-12-24T09:16:49.524Z,2.90
2018-12-24T09:17:49.489Z,4.70
2018-12-24T09:18:49.455Z,3.50
2018-12-24T09:19:49.418Z,3.50
2018-12-24T09:20:52.745Z,3.10
2018-12-24T09:21:49.347Z,2.70
2018-12-24T09:22:49.312Z,2.80
2018-12-24T09:23:49.276Z,2.80
2018-12-24T09:24:49.241Z,3.40
2018-12-24T09:25:49.206Z,3.30
2018-12-24T09:26:49.171Z,3.70
2018-12-24T09:27:49.134Z,3.70
2018-12-24T09:28:49.101Z,3.40
2018-12-24T09:29:49.062Z,3.10
2018-12-24T09:30:49.028Z,3.60
2018-12-24T09:31:48.990Z,3.60
2018-12-24T09:32:48.958Z,3.50
2018-12-24T09:33:48.922Z,3.30
2018-12-24T09:34:48.886Z,2.80
2018-12-24T09:35:48.849Z,3.90
2018-12-24T09:36:48.815Z,3.60
2018-12-24T09:37:48.779Z,3.20
2018-12-24T09:38:48.743Z,3.30
2018-12-24T09:39:48.707Z,3.80
2018-12-24T09:40:48.679Z,3.40
2018-12-24T09:41:48.636Z,3.10
2018-12-24T09:42:48.602Z,4.70
2018-12-24T09:43:48.572Z,4.60
2018-12-24T09:44:48.530Z,4.80
2018-12-24T09:45:48.497Z,3.50
2018-12-24T09:46:48.461Z,3.30
2018-12-24T09:47:48.424Z,3.40
2018-12-24T09:48:48.389Z,3.90
2018-12-24T09:49:48.353Z,3.90
2018-12-24T09:50:48.319Z,3.90
2018-12-24T09:51:48.282Z,4.30
2018-12-24T09:52:48.248Z,4.40
2018-12-24T09:53:48.212Z,4.40
2018-12-24T09:54:48.185Z,5.10
2018-12-24T09:55:48.141Z,5.10
2018-12-24T09:56:48.107Z,6.30
2018-12-24T09:57:48.070Z,5.10
2018-12-24T09:58:48.036Z,4.80
2018-12-24T09:59:48.000Z,5.50
2018-12-24T10:00:47.965Z,4.20
2018-12-24T10:01:47.928Z,5.20
2018-12-24T10:02:47.895Z,5.60
2018-12-24T10:03:47.857Z,4.20
2018-12-24T10:04:47.822Z,4.60
2018-12-24T10:05:47.786Z,6.20
2018-12-24T10:06:47.751Z,4.90
2018-12-24T10:07:47.716Z,5.10
2018-12-24T10:08:47.680Z,5.60
2018-12-24T10:09:47.644Z,5.10
2018-12-24T10:10:47.609Z,5.40
2018-12-24T10:11:47.572Z,6.50
2018-12-24T10:12:47.538Z,6.10
2018-12-24T10:13:47.502Z,9.10
2018-12-24T10:14:47.467Z,7.30
2018-12-24T10:15:47.432Z,8.80
2018-12-24T10:16:47.395Z,7.50
2018-12-24T10:17:47.361Z,12.80
2018-12-24T10:18:47.324Z,6.60
2018-12-24T10:19:47.289Z,7.00
2018-12-24T10:20:47.253Z,5.40
2018-12-24T10:21:47.217Z,5.50
2018-12-24T10:22:47.183Z,5.60
2018-12-24T10:23:47.148Z,5.70
2018-12-24T10:24:47.110Z,6.20
2018-12-24T10:25:47.076Z,6.30
2018-12-24T10:26:47.045Z,6.00
2018-12-24T10:27:47.006Z,7.30
2018-12-24T10:28:46.968Z,6.00
2018-12-24T10:29:46.933Z,5.70
2018-12-24T10:30:46.901Z,6.40
2018-12-24T10:31:46.862Z,5.30
2018-12-24T10:32:46.827Z,6.30
2018-12-24T10:33:46.792Z,6.90
2018-12-24T10:34:46.847Z,5.60
2018-12-24T10:35:46.725Z,5.10
2018-12-24T10:36:46.688Z,7.10
2018-12-24T10:37:46.652Z,7.30
2018-12-24T10:38:46.617Z,6.40
2018-12-24T10:39:46.581Z,7.40
2018-12-24T10:40:46.545Z,6.50
2018-12-24T10:41:46.511Z,6.00
2018-12-24T10:42:46.474Z,5.70
2018-12-24T10:43:46.440Z,6.90
2018-12-24T10:44:46.405Z,5.40
2018-12-24T10:45:46.369Z,6.70
2018-12-24T10:46:46.334Z,6.80
2018-12-24T10:47:46.300Z,7.50
2018-12-24T10:48:46.651Z,6.50
2018-12-24T10:49:46.230Z,7.40
2018-12-24T10:50:46.195Z,5.20
2018-12-24T10:51:46.160Z,6.80
2018-12-24T10:52:46.124Z,6.60
2018-12-24T10:53:46.092Z,6.90
2018-12-24T10:54:46.055Z,6.00
2018-12-24T10:55:46.019Z,6.20
2018-12-24T10:56:45.986Z,6.20
2018-12-24T10:57:45.948Z,5.80
2018-12-24T10:58:45.915Z,6.50
2018-12-24T10:59:45.879Z,6.90
2018-12-24T11:00:45.845Z,7.20
2018-12-24T11:01:45.810Z,7.50
2018-12-24T11:02:45.775Z,5.40
2018-12-24T11:03:45.739Z,5.70
2018-12-24T11:04:45.703Z,6.90
2018-12-24T11:05:45.679Z,5.90
2018-12-24T11:06:45.638Z,6.80
2018-12-24T11:07:45.599Z,7.60
2018-12-24T11:08:45.564Z,7.50
2018-12-24T11:09:45.530Z,5.80
2018-12-24T11:10:46.734Z,6.10
2018-12-24T11:11:45.459Z,7.30
2018-12-24T11:12:45.424Z,5.60
2018-12-24T11:13:45.389Z,6.40
2018-12-24T11:14:45.354Z,7.90
2018-12-24T11:15:45.319Z,6.50
2018-12-24T11:16:45.284Z,6.80
2018-12-24T11:17:45.249Z,7.50
2018-12-24T11:18:45.214Z,7.20
2018-12-24T11:19:45.177Z,8.10
2018-12-24T11:20:45.145Z,6.80
2018-12-24T11:21:45.108Z,17.30
2018-12-24T11:22:45.074Z,15.00
2018-12-24T11:23:45.038Z,23.80
2018-12-24T11:24:45.001Z,7.50
2018-12-24T11:25:44.967Z,8.40
2018-12-24T11:26:44.932Z,8.70
2018-12-24T11:27:44.898Z,6.30
2018-12-24T11:28:44.862Z,7.10
2018-12-24T11:29:44.827Z,7.10
2018-12-24T11:30:44.794Z,9.10
2018-12-24T11:31:44.756Z,8.90
2018-12-24T11:32:44.725Z,7.70
2018-12-24T11:33:44.688Z,8.30
2018-12-24T11:34:44.652Z,7.40
2018-12-24T11:35:44.617Z,9.30
2018-12-24T11:36:44.581Z,10.00
2018-12-24T11:37:44.549Z,10.90
2018-12-24T11:38:44.513Z,8.80
2018-12-24T11:39:44.476Z,12.00
2018-12-24T11:40:44.443Z,9.60
2018-12-24T11:41:44.407Z,8.90
2018-12-24T11:42:44.373Z,8.60
2018-12-24T11:43:44.337Z,12.20
2018-12-24T11:44:44.306Z,8.40
2018-12-24T11:45:44.268Z,9.50
2018-12-24T11:46:44.232Z,7.70
2018-12-24T11:47:44.196Z,7.10
2018-12-24T11:48:44.162Z,8.60
2018-12-24T11:49:44.132Z,8.70
2018-12-24T11:50:44.092Z,9.30
2018-12-24T11:51:44.057Z,9.70
2018-12-24T11:52:44.021Z,7.30
2018-12-24T11:53:43.987Z,6.80
2018-12-24T11:54:43.952Z,8.00
2018-12-24T11:55:43.917Z,6.70
2018-12-24T11:56:43.882Z,12.00
2018-12-24T11:57:43.847Z,7.90
2018-12-24T11:58:43.811Z,6.70
2018-12-24T11:59:43.776Z,7.20
2018-12-24T12:00:43.742Z,7.40
2018-12-24T12:01:43.707Z,7.00
2018-12-24T12:02:43.672Z,8.00
2018-12-24T12:03:43.636Z,6.30
2018-12-24T12:04:43.600Z,8.00
2018-12-24T12:05:43.568Z,7.30
2018-12-24T12:06:43.533Z,6.20
2018-12-24T12:07:43.499Z,6.20
2018-12-24T12:08:43.462Z,6.90
2018-12-24T12:09:43.428Z,8.10
2018-12-24T12:10:43.394Z,7.40
2018-12-24T12:11:43.356Z,8.10
2018-12-24T12:12:43.335Z,8.10
2018-12-24T12:13:43.290Z,7.10
2018-12-24T12:14:43.254Z,8.00
2018-12-24T12:15:43.224Z,7.70
2018-12-24T12:16:43.184Z,7.90
2018-12-24T12:17:43.150Z,8.40
2018-12-24T12:18:43.136Z,7.40
2018-12-24T12:19:43.079Z,9.30
2018-12-24T12:20:43.044Z,8.20
2018-12-24T12:21:43.011Z,7.70
2018-12-24T12:22:42.978Z,7.50
2018-12-24T12:23:42.941Z,9.20
2018-12-24T12:24:42.905Z,10.10
2018-12-24T12:25:42.872Z,10.90
2018-12-24T12:26:42.843Z,10.00
2018-12-24T12:27:42.802Z,11.10
2018-12-24T12:28:42.767Z,14.20
2018-12-24T12:29:42.732Z,12.10
2018-12-24T12:30:42.697Z,10.30
2018-12-24T12:31:42.663Z,8.80
2018-12-24T12:32:42.628Z,10.10
2018-12-24T12:33:42.593Z,8.50
2018-12-24T12:34:42.561Z,7.50
2018-12-24T12:35:42.524Z,7.50
2018-12-24T12:36:42.487Z,7.50
2018-12-24T12:37:42.455Z,8.40
2018-12-24T12:38:42.418Z,9.10
2018-12-24T12:39:42.384Z,10.30
2018-12-24T12:40:42.352Z,7.80
2018-12-24T12:41:42.314Z,8.20
2018-12-24T12:42:42.280Z,7.30
2018-12-24T12:43:42.242Z,8.70
2018-12-24T12:44:42.209Z,9.50
2018-12-24T12:45:42.174Z,8.10
2018-12-24T12:46:42.139Z,9.60
2018-12-24T12:47:42.103Z,8.90
2018-12-24T12:48:42.071Z,10.10
2018-12-24T12:49:42.034Z,8.20
2018-12-24T12:50:42.001Z,8.60
2018-12-24T12:51:41.964Z,7.30
2018-12-24T12:52:41.929Z,8.80
2018-12-24T12:53:41.894Z,8.60
2018-12-24T12:54:41.860Z,8.40
2018-12-24T12:55:41.826Z,10.20
2018-12-24T12:56:41.790Z,9.00
2018-12-24T12:57:41.755Z,9.40
2018-12-24T12:58:41.721Z,7.90
2018-12-24T12:59:41.684Z,8.30
2018-12-24T13:00:41.654Z,9.80
2018-12-24T13:01:41.618Z,8.50
2018-12-24T13:02:41.581Z,9.10
2018-12-24T13:03:41.546Z,9.00
2018-12-24T13:04:41.512Z,6.70
2018-12-24T13:05:41.476Z,9.00
2018-12-24T13:06:41.441Z,8.40
2018-12-24T13:07:41.405Z,7.70
2018-12-24T13:08:41.371Z,6.20
2018-12-24T13:09:41.337Z,8.50